Time;durP1;ratioP1;P1;durP2;ratioP2;P2;SDS_P1;SDS_P2;PMS_P1;PMS_P2;Temp;Humidity;BMP_temperature;BMP_pressure;BME280_temperature;BME280_humidity;BME280_pressure;Samples;Min_cycle;Max_cycle;Signal;HPM_P1;HPM_P2
2021/12/25 00:00:19;;;;;;;29.15;12.77;;;10.10;99.90;;;;;;5015111;28;20090;-84
2021/12/25 00:02:45;;;;;;;31.38;14.43;;;10.10;99.90;;;;;;5033287;28;20274;-84
2021/12/25 00:05:13;;;;;;;30.63;14.20;;;10.10;99.90;;;;;;5033020;28;20196;-84
2021/12/25 00:07:39;;;;;;;31.35;14.68;;;10.10;99.90;;;;;;5033356;28;20040;-85
2021/12/25 00:10:06;;;;;;;28.98;15.15;;;10.10;99.90;;;;;;5033243;28;20033;-84
2021/12/25 00:12:32;;;;;;;28.08;15.25;;;10.10;99.90;;;;;;5033057;28;20033;-84
2021/12/25 00:14:59;;;;;;;27.95;15.00;;;10.10;99.90;;;;;;5032983;28;20060;-84
2021/12/25 00:17:26;;;;;;;29.90;15.10;;;10.20;99.90;;;;;;5015156;28;20025;-84
2021/12/25 00:19:55;;;;;;;27.33;15.27;;;10.20;99.90;;;;;;5014731;28;20397;-84
2021/12/25 00:22:21;;;;;;;27.73;15.93;;;10.20;99.90;;;;;;5033180;28;20025;-84
2021/12/25 00:24:48;;;;;;;27.33;15.27;;;10.20;99.90;;;;;;5014791;28;20029;-85
2021/12/25 00:27:53;;;;;;;26.55;16.10;;;10.20;99.90;;;;;;5015104;28;20436;-84
2021/12/25 00:35:07;;;;;;;30.85;14.98;;;10.30;99.90;;;;;;5032456;28;20441;-84
2021/12/25 00:37:33;;;;;;;31.50;15.68;;;10.40;99.90;;;;;;5032627;28;20482;-84
2021/12/25 00:39:59;;;;;;;28.30;14.82;;;10.30;99.90;;;;;;5032365;28;20036;-84
2021/12/25 00:42:24;;;;;;;31.25;15.27;;;10.30;99.90;;;;;;5014677;28;20470;-84
2021/12/25 00:44:50;;;;;;;34.47;16.08;;;10.30;99.90;;;;;;5032510;28;20026;-84
2021/12/25 00:47:16;;;;;;;29.23;14.77;;;10.20;99.90;;;;;;5032502;28;20132;-84
2021/12/25 00:49:41;;;;;;;30.42;16.50;;;10.20;99.90;;;;;;5032459;28;20021;-84
2021/12/25 00:52:08;;;;;;;32.88;16.75;;;10.20;99.90;;;;;;5032467;28;20025;-84
2021/12/25 00:54:34;;;;;;;34.00;18.10;;;10.20;99.90;;;;;;5032403;28;20013;-84
2021/12/25 00:57:00;;;;;;;43.63;18.40;;;10.10;99.90;;;;;;5014385;28;20414;-84
2021/12/25 00:59:25;;;;;;;29.33;17.40;;;10.10;99.90;;;;;;5032085;28;20041;-84
2021/12/25 01:01:51;;;;;;;33.03;18.10;;;10.10;99.90;;;;;;5032188;28;20261;-84
2021/12/25 01:04:17;;;;;;;31.13;17.70;;;10.10;99.90;;;;;;5032096;28;20149;-84
2021/12/25 01:06:42;;;;;;;35.55;20.20;;;10.10;99.90;;;;;;5031945;28;20053;-84
2021/12/25 01:09:08;;;;;;;33.92;19.08;;;10.00;99.90;;;;;;5031024;28;20022;-84
2021/12/25 01:11:36;;;;;;;29.65;18.10;;;10.00;99.90;;;;;;5032229;28;20117;-84
2021/12/25 01:14:23;;;;;;;31.25;20.15;;;10.10;99.90;;;;;;5031946;28;20221;-84
2021/12/25 01:26:00;;;;;;;41.33;20.77;;;10.10;99.90;;;;;;4970283;28;20035;-85
2021/12/25 01:39:19;;;;;;;36.05;23.85;;;9.80;99.90;;;;;;5031604;28;20087;-84
2021/12/25 01:49:52;;;;;;;39.13;23.98;;;9.70;99.90;;;;;;5031678;28;20044;-84
2021/12/25 01:52:24;;;;;;;34.65;24.00;;;9.70;99.90;;;;;;5031494;28;20492;-85
2021/12/25 01:54:50;;;;;;;38.70;23.48;;;9.70;99.90;;;;;;5031519;28;20025;-84
2021/12/25 01:57:16;;;;;;;39.22;24.25;;;9.70;99.90;;;;;;5031178;28;20116;-84
2021/12/25 01:59:42;;;;;;;34.22;23.83;;;9.70;99.90;;;;;;5031133;28;20042;-84
2021/12/25 02:02:07;;;;;;;36.72;23.38;;;9.80;99.90;;;;;;5031019;28;20017;-84
2021/12/25 02:04:33;;;;;;;32.78;23.73;;;9.80;99.90;;;;;;5031029;28;20037;-84
2021/12/25 02:06:59;;;;;;;43.78;30.02;;;9.80;99.90;;;;;;5030822;28;20548;-84
2021/12/25 02:09:24;;;;;;;46.72;31.10;;;9.90;99.90;;;;;;5031079;28;20044;-85
2021/12/25 02:11:51;;;;;;;40.85;28.63;;;10.00;99.90;;;;;;5030909;28;20193;-84
2021/12/25 02:14:17;;;;;;;37.72;23.05;;;10.00;99.90;;;;;;5030825;28;20100;-85
2021/12/25 02:16:57;;;;;;;34.17;22.25;;;10.00;99.90;;;;;;5031143;28;20113;-84
2021/12/25 02:19:38;;;;;;;35.97;23.52;;;10.00;99.90;;;;;;5030388;28;20040;-84
2021/12/25 02:22:04;;;;;;;35.05;22.65;;;10.10;99.90;;;;;;5030594;28;20025;-84
2021/12/25 02:24:30;;;;;;;29.40;21.08;;;10.10;99.90;;;;;;5030681;28;20100;-85
2021/12/25 02:26:56;;;;;;;34.75;22.85;;;10.10;99.90;;;;;;5030834;28;20029;-85
2021/12/25 02:29:23;;;;;;;28.80;20.60;;;10.10;99.90;;;;;;5030699;28;20022;-84
2021/12/25 02:31:49;;;;;;;27.48;19.85;;;10.10;99.90;;;;;;5030886;28;20193;-84
2021/12/25 02:34:15;;;;;;;32.75;21.08;;;10.10;99.90;;;;;;5030542;28;20201;-84
2021/12/25 02:36:41;;;;;;;34.05;20.13;;;10.10;99.90;;;;;;5030623;28;20033;-84
2021/12/25 02:39:07;;;;;;;30.58;20.00;;;10.10;99.90;;;;;;5030756;28;20402;-84
2021/12/25 02:41:33;;;;;;;29.88;21.80;;;10.20;99.90;;;;;;5030359;28;20040;-84
2021/12/25 02:43:58;;;;;;;33.20;21.90;;;10.10;99.90;;;;;;5030402;28;20025;-85
2021/12/25 02:46:25;;;;;;;34.70;22.85;;;10.10;99.90;;;;;;5030369;28;20026;-84
2021/12/25 02:48:52;;;;;;;35.25;23.55;;;10.00;99.90;;;;;;5030149;28;20494;-84
2021/12/25 02:51:18;;;;;;;34.28;22.65;;;10.00;99.90;;;;;;5030278;28;20545;-84
2021/12/25 02:53:44;;;;;;;35.20;21.40;;;10.00;99.90;;;;;;5030348;28;20155;-84
2021/12/25 02:56:10;;;;;;;33.13;22.88;;;10.00;99.90;;;;;;5030412;28;20105;-84
2021/12/25 02:58:36;;;;;;;33.58;23.45;;;9.90;99.90;;;;;;5030247;28;20036;-84
2021/12/25 03:01:10;;;;;;;33.70;22.50;;;9.80;99.90;;;;;;5012228;28;20032;-84
2021/12/25 03:03:36;;;;;;;32.28;22.90;;;9.90;99.90;;;;;;5012118;28;20025;-84
2021/12/25 03:06:03;;;;;;;34.65;21.95;;;9.90;99.90;;;;;;5029835;28;20057;-84
2021/12/25 03:08:29;;;;;;;33.58;22.40;;;9.90;99.90;;;;;;5030021;28;20017;-84
2021/12/25 03:10:57;;;;;;;30.65;21.58;;;9.90;99.90;;;;;;5029826;28;20502;-84
2021/12/25 03:15:59;;;;;;;31.75;22.70;;;9.90;99.90;;;;;;5029912;28;20064;-84
2021/12/25 03:18:33;;;;;;;32.45;21.25;;;9.80;99.90;;;;;;5011918;28;20088;-84
2021/12/25 03:21:02;;;;;;;35.67;23.50;;;9.80;99.90;;;;;;5030164;28;20063;-84
2021/12/25 03:23:30;;;;;;;31.98;21.85;;;9.80;99.90;;;;;;5029814;28;20408;-84
2021/12/25 03:25:58;;;;;;;37.17;23.45;;;9.70;99.90;;;;;;5012050;28;20025;-84
2021/12/25 03:28:29;;;;;;;32.35;21.85;;;9.70;99.90;;;;;;5012045;28;20025;-84
2021/12/25 03:30:59;;;;;;;30.60;21.48;;;9.70;99.90;;;;;;5012627;28;20482;-84
2021/12/25 03:33:26;;;;;;;31.70;21.45;;;9.70;99.90;;;;;;5016066;28;20133;-84
2021/12/25 03:35:52;;;;;;;33.90;22.05;;;9.70;99.90;;;;;;5034117;28;20332;-84
2021/12/25 03:38:19;;;;;;;31.48;22.20;;;9.70;99.90;;;;;;5034089;28;20033;-84
2021/12/25 03:40:46;;;;;;;33.85;22.25;;;9.70;99.90;;;;;;5033862;28;20550;-84
2021/12/25 03:43:12;;;;;;;35.30;22.67;;;9.70;99.90;;;;;;5033641;28;20013;-84
2021/12/25 03:45:39;;;;;;;35.83;22.70;;;9.70;99.90;;;;;;5033531;28;20398;-84
2021/12/25 03:59:01;;;;;;;38.33;24.00;;;9.60;99.90;;;;;;5033570;28;20036;-84
2021/12/25 04:06:33;;;;;;;35.78;23.73;;;9.70;99.90;;;;;;5033034;28;20057;-84
2021/12/25 04:09:03;;;;;;;36.58;23.27;;;9.70;99.90;;;;;;5033192;28;20474;-84
2021/12/25 04:11:32;;;;;;;38.72;23.45;;;9.70;99.90;;;;;;5015389;28;20498;-85
2021/12/25 04:13:58;;;;;;;37.97;24.40;;;9.60;99.90;;;;;;5033156;28;20105;-84
2021/12/25 04:16:26;;;;;;;37.50;23.95;;;9.50;99.90;;;;;;5033238;28;20033;-84
2021/12/25 04:18:52;;;;;;;42.47;25.25;;;9.50;99.90;;;;;;5015357;28;20512;-84
2021/12/25 04:21:18;;;;;;;46.38;25.80;;;9.50;99.90;;;;;;5033055;28;20037;-85
2021/12/25 04:23:44;;;;;;;43.30;26.20;;;9.50;99.90;;;;;;5015418;28;20485;-85
2021/12/25 04:26:11;;;;;;;45.60;25.77;;;9.50;99.90;;;;;;5033040;28;20410;-85
2021/12/25 04:28:44;;;;;;;40.60;25.10;;;9.50;99.90;;;;;;5032804;28;20018;-85
2021/12/25 04:31:28;;;;;;;39.70;26.40;;;9.50;99.90;;;;;;5032899;28;20072;-85
2021/12/25 04:48:03;;;;;;;44.47;26.33;;;9.40;99.90;;;;;;5032502;28;20526;-85
2021/12/25 05:04:13;;;;;;;41.63;24.48;;;9.30;99.90;;;;;;5032188;28;20033;-84
2021/12/25 05:06:39;;;;;;;35.17;24.33;;;9.30;99.90;;;;;;5031985;28;20045;-84
2021/12/25 05:09:05;;;;;;;39.67;24.05;;;9.30;99.90;;;;;;5014231;28;20499;-84
2021/12/25 05:11:31;;;;;;;40.83;25.92;;;9.30;99.90;;;;;;5032132;28;20049;-84
2021/12/25 05:13:56;;;;;;;38.63;24.73;;;9.20;99.90;;;;;;5032069;28;20040;-84
2021/12/25 05:16:22;;;;;;;39.33;24.73;;;9.20;99.90;;;;;;5032243;28;20029;-84
2021/12/25 05:18:50;;;;;;;40.33;25.35;;;9.20;99.90;;;;;;5014025;28;20434;-84
2021/12/25 05:21:18;;;;;;;39.60;24.90;;;9.20;99.90;;;;;;5031943;28;20025;-84
2021/12/25 05:23:44;;;;;;;40.92;24.90;;;9.20;99.90;;;;;;5032085;28;20021;-84
2021/12/25 05:26:10;;;;;;;38.00;24.98;;;9.20;99.90;;;;;;5031938;28;20029;-84
2021/12/25 05:28:44;;;;;;;38.05;24.42;;;9.20;99.90;;;;;;5031707;28;20028;-84
2021/12/25 05:31:15;;;;;;;41.22;24.67;;;9.10;99.90;;;;;;5031765;28;20027;-84
2021/12/25 05:33:42;;;;;;;41.20;25.23;;;9.10;99.90;;;;;;5031559;28;20030;-84
2021/12/25 05:36:08;;;;;;;42.90;25.77;;;9.10;99.90;;;;;;5031870;28;20030;-84
2021/12/25 05:38:35;;;;;;;41.47;25.02;;;9.10;99.90;;;;;;5031649;28;20121;-84
2021/12/25 05:41:02;;;;;;;43.10;23.90;;;9.00;99.90;;;;;;5031769;28;20084;-84
2021/12/25 05:43:27;;;;;;;44.22;25.65;;;9.00;99.90;;;;;;5031501;28;20022;-84
2021/12/25 05:45:53;;;;;;;43.75;25.05;;;9.00;99.90;;;;;;5031461;28;20179;-84
2021/12/25 05:48:21;;;;;;;40.15;25.30;;;9.00;99.90;;;;;;5031003;28;20482;-84
2021/12/25 05:50:46;;;;;;;41.75;24.58;;;9.00;99.90;;;;;;5031137;28;20021;-84
2021/12/25 05:53:12;;;;;;;42.30;24.30;;;8.90;99.90;;;;;;5031087;28;20030;-84
2021/12/25 05:55:38;;;;;;;38.00;23.35;;;8.90;99.90;;;;;;5030854;28;20479;-84
2021/12/25 05:58:07;;;;;;;42.20;25.45;;;8.90;99.90;;;;;;5031224;28;20056;-84
2021/12/25 06:00:34;;;;;;;39.83;24.33;;;8.90;99.90;;;;;;5031224;28;20085;-84
2021/12/25 06:03:00;;;;;;;36.97;23.60;;;8.90;99.90;;;;;;5031542;28;20095;-84
2021/12/25 06:05:26;;;;;;;40.72;24.55;;;8.90;99.90;;;;;;5030892;28;20073;-84
2021/12/25 06:07:52;;;;;;;41.40;25.08;;;8.80;99.90;;;;;;5031055;28;20029;-84
2021/12/25 06:10:18;;;;;;;37.05;22.33;;;8.80;99.90;;;;;;5030809;28;20013;-84
2021/12/25 06:12:48;;;;;;;40.60;24.00;;;8.80;99.90;;;;;;5030799;28;20060;-84
2021/12/25 06:15:15;;;;;;;38.53;23.60;;;8.80;99.90;;;;;;5030705;28;20113;-84
2021/12/25 06:17:41;;;;;;;38.75;24.10;;;8.80;99.90;;;;;;5012999;28;20166;-84
2021/12/25 06:20:08;;;;;;;37.33;23.23;;;8.80;99.90;;;;;;5030326;28;20308;-84
2021/12/25 06:22:34;;;;;;;35.92;23.45;;;8.80;99.90;;;;;;5030981;28;20036;-84
2021/12/25 06:25:00;;;;;;;34.38;22.35;;;8.70;99.90;;;;;;5030789;28;20025;-84
2021/12/25 06:27:25;;;;;;;37.28;23.85;;;8.80;99.90;;;;;;5030585;28;20025;-84
2021/12/25 06:29:52;;;;;;;40.08;23.75;;;8.80;99.90;;;;;;5030728;28;20095;-84
2021/12/25 06:32:18;;;;;;;38.75;22.70;;;8.80;99.90;;;;;;5030593;28;20021;-84
2021/12/25 06:34:45;;;;;;;42.15;22.95;;;8.70;99.90;;;;;;5030276;28;20087;-84
2021/12/25 06:37:11;;;;;;;38.97;22.83;;;8.70;99.90;;;;;;5030534;28;20021;-84
2021/12/25 06:39:39;;;;;;;40.45;23.90;;;8.70;99.90;;;;;;5030647;28;20033;-84
2021/12/25 06:42:06;;;;;;;35.72;22.52;;;8.70;99.90;;;;;;5030457;28;20028;-84
2021/12/25 06:44:31;;;;;;;40.00;23.00;;;8.70;99.90;;;;;;5012572;28;20393;-84
2021/12/25 06:46:57;;;;;;;39.38;24.00;;;8.70;99.90;;;;;;5030305;28;20026;-84
2021/12/25 06:49:24;;;;;;;39.17;24.30;;;8.60;99.90;;;;;;5012435;28;20026;-84
2021/12/25 06:51:51;;;;;;;39.20;23.75;;;8.60;99.90;;;;;;5030102;28;20108;-84
2021/12/25 06:54:18;;;;;;;35.10;21.83;;;8.60;99.90;;;;;;5012171;28;20398;-84
2021/12/25 06:56:45;;;;;;;38.40;24.05;;;8.60;99.90;;;;;;5030136;28;20525;-84
2021/12/25 06:59:11;;;;;;;37.25;22.13;;;8.60;99.90;;;;;;5012256;28;20075;-84
2021/12/25 07:01:38;;;;;;;39.97;22.63;;;8.60;99.90;;;;;;5012598;28;20400;-84
2021/12/25 07:04:06;;;;;;;39.40;24.30;;;8.60;99.90;;;;;;5030170;28;20136;-84
2021/12/25 07:06:33;;;;;;;36.25;21.90;;;8.50;99.90;;;;;;5028969;28;20046;-84
2021/12/25 07:08:59;;;;;;;36.90;23.13;;;8.50;99.90;;;;;;5012539;28;20053;-84
2021/12/25 07:11:25;;;;;;;39.72;23.08;;;8.50;99.90;;;;;;5029452;28;20443;-84
2021/12/25 07:13:51;;;;;;;39.47;23.23;;;8.50;99.90;;;;;;5029706;28;20029;-84
2021/12/25 07:16:18;;;;;;;39.47;23.65;;;8.50;99.90;;;;;;5030071;28;20104;-84
2021/12/25 07:18:43;;;;;;;38.45;21.42;;;8.40;99.90;;;;;;5011744;28;20413;-84
2021/12/25 07:21:09;;;;;;;38.15;22.27;;;8.40;99.90;;;;;;5029939;28;20033;-84
2021/12/25 07:23:35;;;;;;;41.17;23.48;;;8.40;99.90;;;;;;5029984;28;20049;-84
2021/12/25 07:26:01;;;;;;;36.65;22.77;;;8.50;99.90;;;;;;5029812;28;20307;-84
2021/12/25 07:28:28;;;;;;;36.40;21.77;;;8.50;99.90;;;;;;5029836;28;20037;-84
2021/12/25 07:30:56;;;;;;;40.47;24.10;;;8.40;99.90;;;;;;5029918;28;20079;-83
2021/12/25 07:33:22;;;;;;;36.92;23.08;;;8.40;99.90;;;;;;5011872;28;20022;-83
2021/12/25 07:35:48;;;;;;;39.30;23.20;;;8.40;99.90;;;;;;5029519;28;20088;-84
2021/12/25 07:38:15;;;;;;;37.85;22.83;;;8.40;99.90;;;;;;5029574;28;20021;-84
2021/12/25 07:40:41;;;;;;;36.33;22.02;;;8.40;99.90;;;;;;5029583;28;20432;-84
2021/12/25 07:43:06;;;;;;;40.92;22.58;;;8.30;99.90;;;;;;5029727;28;20096;-83
2021/12/25 07:45:32;;;;;;;35.00;21.63;;;8.40;99.90;;;;;;5029723;28;20152;-84
2021/12/25 07:48:01;;;;;;;38.28;21.33;;;8.40;99.90;;;;;;5029424;28;20509;-83
2021/12/25 07:50:30;;;;;;;39.20;23.15;;;8.40;99.90;;;;;;5029505;28;20021;-84
2021/12/25 07:52:56;;;;;;;35.42;22.27;;;8.40;99.90;;;;;;5029404;28;20021;-84
2021/12/25 07:55:22;;;;;;;38.08;22.20;;;8.40;99.90;;;;;;5011644;28;20493;-84
2021/12/25 07:57:48;;;;;;;37.72;22.88;;;8.50;99.90;;;;;;5029498;28;20096;-84
2021/12/25 08:00:15;;;;;;;33.97;21.05;;;8.50;99.90;;;;;;5029555;28;20501;-84
2021/12/25 08:02:43;;;;;;;38.38;23.13;;;8.50;99.90;;;;;;5029467;28;20026;-84
2021/12/25 08:05:09;;;;;;;36.47;21.90;;;8.40;99.90;;;;;;5029268;28;20046;-84
2021/12/25 08:07:35;;;;;;;39.53;23.05;;;8.40;99.90;;;;;;5029958;28;20021;-84
2021/12/25 08:10:13;;;;;;;38.83;22.85;;;8.40;99.90;;;;;;5029347;28;20072;-84
2021/12/25 08:12:45;;;;;;;34.88;21.55;;;8.40;99.90;;;;;;5011453;28;20033;-84
2021/12/25 08:15:13;;;;;;;35.40;21.58;;;8.40;99.90;;;;;;5029596;28;20029;-84
2021/12/25 08:17:40;;;;;;;32.33;21.33;;;8.40;99.90;;;;;;5031077;28;20450;-84
2021/12/25 08:20:06;;;;;;;35.58;21.15;;;8.50;99.90;;;;;;5032819;28;20068;-84
2021/12/25 08:22:32;;;;;;;36.67;21.48;;;8.50;99.90;;;;;;5033254;28;20048;-84
2021/12/25 08:24:57;;;;;;;40.28;23.77;;;8.50;99.90;;;;;;5015109;28;20126;-84
2021/12/25 08:27:23;;;;;;;35.90;21.73;;;8.50;99.90;;;;;;5033064;28;20021;-84
2021/12/25 08:29:49;;;;;;;36.83;22.40;;;8.50;99.90;;;;;;5032976;28;20041;-84
2021/12/25 08:32:15;;;;;;;36.30;22.50;;;8.60;99.90;;;;;;5015118;28;20064;-83
2021/12/25 08:34:42;;;;;;;37.47;22.30;;;8.60;99.90;;;;;;5032614;28;20025;-84
2021/12/25 08:37:08;;;;;;;33.67;20.30;;;8.60;99.90;;;;;;5032718;28;20021;-84
2021/12/25 08:39:34;;;;;;;33.40;20.15;;;8.60;99.90;;;;;;5032925;28;20059;-84
2021/12/25 08:42:04;;;;;;;34.70;21.45;;;8.70;99.90;;;;;;5014884;28;20552;-84
2021/12/25 08:47:04;;;;;;;30.10;19.60;;;8.90;99.90;;;;;;5032755;28;20022;-84
2021/12/25 08:49:31;;;;;;;33.85;20.33;;;9.00;99.90;;;;;;5014670;28;20429;-84
2021/12/25 08:52:00;;;;;;;29.85;19.70;;;9.00;99.90;;;;;;5032446;28;20034;-84
2021/12/25 08:54:27;;;;;;;30.58;19.73;;;9.10;99.90;;;;;;5032363;28;20032;-84
2021/12/25 08:56:53;;;;;;;31.65;19.77;;;9.10;99.90;;;;;;5032296;28;20108;-84
2021/12/25 08:59:19;;;;;;;31.88;19.33;;;9.20;99.90;;;;;;5032231;28;20120;-84
2021/12/25 09:01:46;;;;;;;30.00;18.77;;;9.20;99.90;;;;;;5032244;28;20036;-84
2021/12/25 09:04:12;;;;;;;28.15;17.75;;;9.20;99.90;;;;;;5032421;28;20056;-84
2021/12/25 09:06:39;;;;;;;28.17;18.88;;;9.30;99.90;;;;;;5014375;28;20482;-84
2021/12/25 09:09:06;;;;;;;28.08;18.38;;;9.30;99.90;;;;;;5014284;28;20182;-84
2021/12/25 09:11:33;;;;;;;27.83;18.25;;;9.30;99.90;;;;;;5032076;28;20029;-84
2021/12/25 09:13:59;;;;;;;27.35;18.88;;;9.40;99.90;;;;;;5031896;28;20021;-84
2021/12/25 09:16:25;;;;;;;30.77;19.17;;;9.50;99.90;;;;;;5014232;28;20045;-84
2021/12/25 09:18:51;;;;;;;27.67;18.30;;;9.50;99.90;;;;;;5031684;28;20079;-84
2021/12/25 09:21:17;;;;;;;28.75;19.10;;;9.60;99.90;;;;;;5032045;28;20111;-83
2021/12/25 09:23:43;;;;;;;26.90;18.20;;;9.60;99.90;;;;;;5032181;28;20101;-84
2021/12/25 09:26:09;;;;;;;29.35;18.95;;;9.60;99.90;;;;;;5031862;28;20516;-83
2021/12/25 09:28:35;;;;;;;29.13;19.25;;;9.60;99.90;;;;;;5030942;28;20013;-83
2021/12/25 09:31:01;;;;;;;30.17;19.20;;;9.60;99.90;;;;;;5031680;28;20485;-83
2021/12/25 09:33:26;;;;;;;29.70;18.30;;;9.50;99.90;;;;;;5031522;28;20024;-83
2021/12/25 09:35:52;;;;;;;29.30;18.23;;;9.50;99.90;;;;;;5031543;28;20055;-83
2021/12/25 09:38:18;;;;;;;32.72;20.00;;;9.50;99.90;;;;;;5031504;28;20284;-83
2021/12/25 09:40:44;;;;;;;27.33;17.80;;;9.50;99.90;;;;;;5031669;28;20591;-83
2021/12/25 09:43:10;;;;;;;28.35;18.50;;;9.60;99.90;;;;;;5031585;28;20025;-84
2021/12/25 09:45:36;;;;;;;26.13;17.13;;;9.60;99.90;;;;;;5031447;28;20091;-83
2021/12/25 09:48:05;;;;;;;28.75;17.80;;;9.60;99.90;;;;;;5031558;28;20249;-83
2021/12/25 09:50:31;;;;;;;30.17;18.70;;;9.60;99.90;;;;;;5031679;28;20018;-83
2021/12/25 09:52:57;;;;;;;29.80;18.75;;;9.70;99.90;;;;;;5031303;28;20079;-83
2021/12/25 09:55:23;;;;;;;29.20;18.60;;;9.70;99.90;;;;;;5031244;28;20018;-83
2021/12/25 09:57:49;;;;;;;31.35;19.00;;;9.80;99.90;;;;;;5031090;28;20087;-84
2021/12/25 10:00:21;;;;;;;28.90;17.48;;;9.80;99.90;;;;;;5031041;28;20112;-83
2021/12/25 10:02:50;;;;;;;27.27;17.15;;;9.90;99.90;;;;;;5031353;28;20080;-83
2021/12/25 10:05:26;;;;;;;28.52;17.85;;;10.00;99.90;;;;;;5031242;28;20056;-83
2021/12/25 10:08:11;;;;;;;25.52;16.20;;;10.10;99.90;;;;;;5031198;28;20037;-83
2021/12/25 10:10:43;;;;;;;27.58;16.50;;;10.20;99.90;;;;;;5031048;28;20451;-83
2021/12/25 10:13:30;;;;;;;33.88;17.35;;;10.20;99.90;;;;;;5031222;28;20025;-83
2021/12/25 10:16:00;;;;;;;24.27;16.70;;;10.30;99.90;;;;;;5030988;28;20025;-83
2021/12/25 10:18:33;;;;;;;24.45;16.40;;;10.50;99.90;;;;;;5030724;28;20052;-83
2021/12/25 10:21:21;;;;;;;23.65;15.20;;;10.60;99.90;;;;;;5030756;28;20037;-83
2021/12/25 10:24:16;;;;;;;25.60;16.05;;;10.70;99.90;;;;;;5030826;28;20028;-83
2021/12/25 10:26:45;;;;;;;26.85;15.77;;;10.80;99.90;;;;;;5030662;28;20072;-84
2021/12/25 10:29:28;;;;;;;22.95;15.52;;;10.90;99.90;;;;;;5030700;28;20028;-83
2021/12/25 10:32:12;;;;;;;26.02;14.88;;;11.00;99.90;;;;;;5030633;28;20040;-83
2021/12/25 10:34:38;;;;;;;23.02;14.80;;;11.10;99.90;;;;;;5030546;28;20033;-83
2021/12/25 10:37:12;;;;;;;27.02;17.33;;;11.20;99.90;;;;;;5030317;28;20034;-83
2021/12/25 10:39:39;;;;;;;22.75;15.07;;;11.30;99.90;;;;;;5030055;28;20081;-83
2021/12/25 10:42:15;;;;;;;22.58;13.77;;;11.40;99.90;;;;;;5030371;28;20250;-83
2021/12/25 10:44:54;;;;;;;24.60;15.18;;;11.60;99.90;;;;;;5012543;28;20049;-83
2021/12/25 10:47:26;;;;;;;22.80;14.02;;;11.60;99.90;;;;;;5012769;28;20279;-83
2021/12/25 10:49:56;;;;;;;25.73;15.02;;;11.80;99.90;;;;;;5030088;28;20027;-83
2021/12/25 10:52:31;;;;;;;21.85;15.10;;;11.80;99.90;;;;;;5030401;28;20026;-83
2021/12/25 10:54:57;;;;;;;24.70;17.23;;;12.10;99.90;;;;;;5030259;28;20030;-83
2021/12/25 10:57:41;;;;;;;24.25;14.15;;;12.30;99.90;;;;;;5030089;28;20032;-83
2021/12/25 11:00:06;;;;;;;21.77;14.25;;;12.30;99.90;;;;;;5030014;28;20546;-83
2021/12/25 11:02:45;;;;;;;21.02;14.35;;;12.20;99.90;;;;;;5030053;28;20043;-84
2021/12/25 11:05:21;;;;;;;24.63;14.32;;;12.20;99.90;;;;;;5029880;28;20121;-84
2021/12/25 11:08:01;;;;;;;29.88;19.20;;;12.20;99.90;;;;;;5030067;28;20025;-84
2021/12/25 11:10:29;;;;;;;26.05;15.20;;;12.00;99.90;;;;;;5030049;28;20072;-84
2021/12/25 11:12:57;;;;;;;24.95;13.75;;;11.90;99.90;;;;;;5030128;28;20055;-83
2021/12/25 11:15:26;;;;;;;29.33;16.27;;;11.80;99.90;;;;;;5012154;28;20034;-84
2021/12/25 11:18:03;;;;;;;24.48;14.25;;;11.80;99.90;;;;;;5011943;28;20025;-83
2021/12/25 11:20:38;;;;;;;24.02;11.70;;;11.80;99.90;;;;;;5029824;28;20033;-83
2021/12/25 11:23:05;;;;;;;;;;;11.80;99.90;;;;;;5030316;28;20485;-83
2021/12/25 11:25:33;;;;;;;23.65;14.07;;;11.80;99.90;;;;;;5029724;28;20301;-83
2021/12/25 11:28:00;;;;;;;20.95;12.07;;;11.80;99.90;;;;;;5029907;28;20028;-83
2021/12/25 11:30:31;;;;;;;22.98;11.63;;;11.90;99.90;;;;;;5030021;28;20044;-83
2021/12/25 11:32:58;;;;;;;19.55;12.52;;;11.90;99.90;;;;;;5030171;28;20061;-83
2021/12/25 11:35:24;;;;;;;25.25;14.10;;;12.00;99.90;;;;;;5030261;28;20091;-83
2021/12/25 11:37:51;;;;;;;20.23;10.93;;;12.00;99.90;;;;;;5012499;28;20032;-83
2021/12/25 11:40:21;;;;;;;30.25;13.93;;;12.10;99.90;;;;;;5030151;28;20037;-83
2021/12/25 11:42:53;;;;;;;21.75;12.02;;;12.10;99.90;;;;;;5030331;28;20593;-83
2021/12/25 11:45:27;;;;;;;22.30;11.32;;;12.10;99.90;;;;;;5030225;28;20055;-83
2021/12/25 11:47:54;;;;;;;;;;;12.10;99.90;;;;;;5012872;28;20057;-83
2021/12/25 11:50:21;;;;;;;27.17;12.35;;;12.10;99.90;;;;;;5030330;28;19958;-83
2021/12/25 11:53:13;;;;;;;19.67;11.15;;;12.00;99.90;;;;;;5032152;28;20018;-83
2021/12/25 11:58:39;;;;;;;22.45;11.75;;;12.00;99.90;;;;;;5033941;28;20053;-83
2021/12/25 12:01:25;;;;;;;25.83;12.48;;;12.00;99.90;;;;;;5033662;28;20438;-83
2021/12/25 12:04:19;;;;;;;20.70;11.35;;;12.00;99.90;;;;;;5033108;28;20025;-83
2021/12/25 12:06:45;;;;;;;20.48;11.25;;;12.00;99.90;;;;;;5030276;28;20575;-83
2021/12/25 12:09:27;;;;;;;20.80;11.43;;;11.90;99.90;;;;;;5033286;28;20067;-83
2021/12/25 12:12:04;;;;;;;19.02;10.65;;;12.00;99.90;;;;;;5033261;28;20053;-83
2021/12/25 12:14:31;;;;;;;24.88;11.05;;;12.20;99.90;;;;;;5033418;28;20037;-83
2021/12/25 12:17:04;;;;;;;16.42;10.05;;;12.30;99.90;;;;;;5033726;28;20018;-84
2021/12/25 12:19:29;;;;;;;19.60;10.38;;;12.40;99.90;;;;;;5032828;28;20051;-83
2021/12/25 12:21:56;;;;;;;21.83;10.98;;;12.40;99.90;;;;;;5033286;28;20470;-83
2021/12/25 12:27:02;;;;;;;20.35;10.75;;;12.30;99.90;;;;;;5033614;28;20112;-83
2021/12/25 12:29:42;;;;;;;21.38;9.75;;;12.30;99.90;;;;;;5033204;28;20021;-83
2021/12/25 12:32:43;;;;;;;24.60;11.02;;;12.30;99.90;;;;;;5033119;28;20025;-83
2021/12/25 12:35:35;;;;;;;25.05;10.60;;;12.40;99.90;;;;;;5009337;28;20497;-83
2021/12/25 12:38:48;;;;;;;22.13;10.73;;;12.50;99.90;;;;;;5014870;28;20057;-83
2021/12/25 12:41:39;;;;;;;24.13;11.73;;;12.50;99.90;;;;;;5032567;28;20033;-83
2021/12/25 12:44:13;;;;;;;26.15;11.63;;;12.50;99.90;;;;;;5032422;28;20030;-83
2021/12/25 12:46:48;;;;;;;21.60;11.68;;;12.50;99.90;;;;;;5032528;28;20098;-83
2021/12/25 12:49:16;;;;;;;26.33;10.55;;;12.30;99.90;;;;;;5033886;28;20029;-83
2021/12/25 12:51:42;;;;;;;21.25;10.27;;;12.20;99.90;;;;;;5034474;28;20423;-83
2021/12/25 12:54:08;;;;;;;19.55;10.43;;;12.10;99.90;;;;;;5039783;28;20025;-83
2021/12/25 12:56:36;;;;;;;23.80;10.60;;;12.10;99.90;;;;;;5045976;28;20100;-83
2021/12/25 12:59:03;;;;;;;29.27;12.02;;;12.20;99.90;;;;;;5046486;28;20037;-83
2021/12/25 13:01:29;;;;;;;18.60;9.80;;;12.10;99.90;;;;;;5044528;28;20082;-83
2021/12/25 13:03:57;;;;;;;22.17;10.52;;;12.20;99.90;;;;;;5043029;28;20026;-83
2021/12/25 13:06:29;;;;;;;24.30;11.98;;;12.20;99.90;;;;;;5044075;28;20050;-83
2021/12/25 13:08:59;;;;;;;22.83;10.82;;;12.20;99.90;;;;;;5041934;28;20045;-83
2021/12/25 13:11:34;;;;;;;24.05;11.43;;;12.20;99.90;;;;;;5032298;28;20108;-83
2021/12/25 13:14:03;;;;;;;30.90;11.15;;;12.30;99.90;;;;;;5032523;28;20037;-83
2021/12/25 13:16:41;;;;;;;24.02;11.02;;;12.20;99.90;;;;;;5032281;28;20027;-83
2021/12/25 13:19:07;;;;;;;30.05;11.38;;;12.20;99.90;;;;;;5031662;28;20040;-84
2021/12/25 13:21:35;;;;;;;26.15;12.75;;;12.30;99.90;;;;;;5032186;28;20045;-83
2021/12/25 13:24:10;;;;;;;23.95;10.95;;;12.40;99.90;;;;;;5031753;28;20520;-83
2021/12/25 13:26:40;;;;;;;25.73;10.77;;;12.60;99.90;;;;;;5014218;28;20610;-83
2021/12/25 13:29:13;;;;;;;19.90;9.50;;;12.60;99.90;;;;;;5031965;28;20033;-83
2021/12/25 13:31:42;;;;;;;28.35;10.50;;;12.80;99.90;;;;;;5031918;28;20557;-83
2021/12/25 13:34:29;;;;;;;21.70;9.73;;;12.80;99.90;;;;;;5031587;28;20029;-83
2021/12/25 13:37:13;;;;;;;21.23;9.85;;;12.70;99.90;;;;;;5013811;28;20279;-83
2021/12/25 13:39:41;;;;;;;26.27;10.52;;;12.60;99.90;;;;;;5013015;28;20053;-83
2021/12/25 13:42:13;;;;;;;24.23;10.60;;;12.80;99.90;;;;;;5031365;28;20433;-83
2021/12/25 13:44:40;;;;;;;24.55;8.93;;;12.70;99.90;;;;;;5013623;28;20022;-83
2021/12/25 13:47:23;;;;;;;21.75;10.82;;;12.80;99.90;;;;;;5031192;28;20033;-83
2021/12/25 13:49:54;;;;;;;23.30;9.90;;;12.80;99.90;;;;;;5031065;28;20029;-83
2021/12/25 13:52:20;;;;;;;21.33;8.85;;;12.80;99.90;;;;;;5013401;28;20064;-83
2021/12/25 13:54:49;;;;;;;22.77;9.52;;;12.80;99.90;;;;;;5013502;28;20492;-83
2021/12/25 13:57:18;;;;;;;23.38;10.30;;;12.80;99.90;;;;;;5031243;28;20017;-83
2021/12/25 13:59:50;;;;;;;23.77;10.05;;;12.80;99.90;;;;;;5031210;28;20044;-83
2021/12/25 14:02:16;;;;;;;19.15;9.98;;;12.80;99.90;;;;;;5031202;28;20235;-83
2021/12/25 14:04:46;;;;;;;26.90;11.38;;;12.70;99.90;;;;;;5013279;28;20581;-84
2021/12/25 14:07:14;;;;;;;23.52;9.15;;;12.60;99.90;;;;;;5013718;28;20099;-83
2021/12/25 14:09:56;;;;;;;28.95;9.57;;;12.60;99.90;;;;;;5031266;28;20021;-83